createdAt,value
2019-02-20T00:00:31.684Z,98.26
2019-02-20T00:03:00.674Z,97.75
2019-02-20T00:05:28.758Z,97.42
2019-02-20T00:07:57.219Z,97.36
2019-02-20T00:10:25.276Z,96.83
2019-02-20T00:12:53.366Z,97.49
2019-02-20T00:15:21.445Z,97.78
2019-02-20T00:17:50.219Z,97.21
2019-02-20T00:20:18.762Z,97.30
2019-02-20T00:22:46.847Z,97.01
2019-02-20T00:25:14.923Z,96.96
2019-02-20T00:27:43.026Z,96.70
2019-02-20T00:30:11.232Z,96.81
2019-02-20T00:32:39.486Z,97.06
2019-02-20T00:35:07.570Z,97.21
2019-02-20T00:37:38.699Z,97.80
2019-02-20T00:40:07.160Z,97.58
2019-02-20T00:42:35.382Z,97.44
2019-02-20T00:45:22.076Z,97.41
2019-02-20T00:48:12.545Z,98.27
2019-02-20T00:50:41.526Z,97.86
2019-02-20T00:53:17.878Z,98.07
2019-02-20T00:55:46.058Z,97.67
2019-02-20T00:58:14.163Z,97.93
2019-02-20T01:00:42.239Z,97.54
2019-02-20T01:03:11.105Z,97.44
2019-02-20T01:05:39.313Z,97.37
2019-02-20T01:08:07.709Z,97.41
2019-02-20T01:10:35.816Z,97.25
2019-02-20T01:13:04.238Z,97.67
2019-02-20T01:15:32.602Z,97.79
2019-02-20T01:18:00.956Z,97.72
2019-02-20T01:20:29.350Z,97.71
2019-02-20T01:22:59.889Z,98.04
2019-02-20T01:25:27.785Z,98.89
2019-02-20T01:27:55.994Z,98.15
2019-02-20T01:30:24.076Z,98.03
2019-02-20T01:32:52.212Z,97.91
2019-02-20T01:35:20.324Z,98.04
2019-02-20T01:37:48.448Z,97.71
2019-02-20T01:40:16.538Z,97.95
2019-02-20T01:42:44.705Z,97.85
2019-02-20T01:45:12.881Z,98.04
2019-02-20T01:47:40.952Z,97.93
2019-02-20T01:50:09.138Z,98.02
2019-02-20T01:52:37.561Z,97.38
2019-02-20T01:55:06.811Z,97.80
2019-02-20T01:57:34.972Z,97.74
2019-02-20T02:00:04.713Z,97.45
2019-02-20T02:02:32.761Z,97.25
2019-02-20T02:05:01.204Z,97.47
2019-02-20T02:07:29.479Z,97.22
2019-02-20T02:09:57.599Z,97.15
2019-02-20T02:12:25.675Z,97.36
2019-02-20T02:14:53.956Z,97.09
2019-02-20T02:17:22.099Z,97.18
2019-02-20T02:19:50.169Z,97.25
2019-02-20T02:22:18.411Z,97.07
2019-02-20T02:24:46.505Z,96.59
2019-02-20T02:27:14.589Z,96.69
2019-02-20T02:29:42.692Z,96.89
2019-02-20T02:32:10.925Z,96.87
2019-02-20T02:34:39.235Z,97.10
2019-02-20T02:37:08.915Z,96.81
2019-02-20T02:39:37.050Z,97.02
2019-02-20T02:42:05.349Z,97.18
2019-02-20T02:44:34.035Z,96.71
2019-02-20T02:47:02.253Z,97.21
2019-02-20T02:49:30.337Z,96.92
2019-02-20T02:51:58.488Z,97.03
2019-02-20T02:54:26.606Z,97.20
2019-02-20T02:56:54.699Z,97.39
2019-02-20T02:59:24.780Z,97.30
2019-02-20T03:01:52.974Z,97.51
2019-02-20T03:04:21.028Z,97.36
2019-02-20T03:06:49.905Z,97.56
2019-02-20T03:09:18.041Z,97.77
2019-02-20T03:11:46.217Z,98.15
2019-02-20T03:14:14.302Z,98.10
2019-02-20T03:16:42.421Z,98.13
2019-02-20T03:19:10.912Z,98.75
2019-02-20T03:21:40.392Z,98.43
2019-02-20T03:24:09.263Z,98.17
2019-02-20T03:26:37.451Z,98.27
2019-02-20T03:29:05.828Z,98.19
2019-02-20T03:31:34.232Z,98.29
2019-02-20T03:34:02.563Z,97.95
2019-02-20T03:36:30.706Z,98.12
2019-02-20T03:38:59.594Z,97.96
2019-02-20T03:41:27.719Z,98.80
2019-02-20T03:43:56.687Z,98.52
2019-02-20T03:46:24.869Z,98.67
2019-02-20T03:48:53.190Z,99.32
2019-02-20T03:51:21.264Z,99.42
2019-02-20T03:53:51.869Z,99.40
2019-02-20T03:56:19.633Z,98.89
2019-02-20T03:58:47.909Z,98.89
2019-02-20T04:01:16.136Z,98.68
2019-02-20T04:03:44.351Z,99.00
2019-02-20T04:06:12.563Z,99.10
2019-02-20T04:08:40.634Z,98.89
2019-02-20T04:11:08.771Z,98.61
2019-02-20T04:13:36.992Z,98.54
2019-02-20T04:16:05.525Z,98.48
2019-02-20T04:18:33.917Z,98.71
2019-02-20T04:21:02.104Z,98.73
2019-02-20T04:23:30.570Z,98.66
2019-02-20T04:25:59.281Z,98.64
2019-02-20T04:28:27.655Z,98.50
2019-02-20T04:30:55.842Z,97.96
2019-02-20T04:33:23.980Z,98.44
2019-02-20T04:35:52.149Z,98.09
2019-02-20T04:38:20.250Z,98.63
2019-02-20T04:40:48.750Z,99.30
2019-02-20T04:43:16.884Z,99.07
2019-02-20T04:45:45.316Z,98.51
2019-02-20T04:48:13.429Z,98.74
2019-02-20T04:50:41.991Z,98.94
2019-02-20T04:53:10.035Z,99.02
2019-02-20T04:55:38.280Z,98.99
2019-02-20T04:58:20.770Z,99.45
2019-02-20T05:00:48.969Z,99.65
2019-02-20T05:03:17.063Z,99.64
2019-02-20T05:05:45.104Z,99.96
2019-02-20T05:08:13.321Z,100.00
2019-02-20T05:10:41.503Z,100.00
2019-02-20T05:13:09.922Z,99.40
2019-02-20T05:15:38.034Z,99.24
2019-02-20T05:18:06.126Z,99.82
2019-02-20T05:20:34.571Z,99.77
2019-02-20T05:23:02.773Z,99.68
2019-02-20T05:25:32.386Z,99.68
2019-02-20T05:28:04.356Z,99.62
2019-02-20T05:30:32.565Z,99.69
2019-02-20T05:33:00.862Z,99.71
2019-02-20T05:35:28.971Z,99.25
2019-02-20T05:37:57.092Z,99.57
2019-02-20T05:40:25.454Z,99.86
2019-02-20T05:42:53.577Z,99.80
2019-02-20T05:45:21.933Z,100.00
2019-02-20T05:47:50.050Z,100.00
2019-02-20T05:50:18.349Z,100.00
2019-02-20T05:52:46.424Z,100.00
2019-02-20T05:55:14.813Z,100.00
2019-02-20T05:57:42.914Z,100.00
2019-02-20T06:00:11.245Z,100.00
2019-02-20T06:02:39.535Z,100.00
2019-02-20T06:05:07.907Z,100.00
2019-02-20T06:07:37.077Z,100.00
2019-02-20T06:10:07.195Z,100.00
2019-02-20T06:12:35.331Z,100.00
2019-02-20T06:15:03.920Z,100.00
2019-02-20T06:17:32.021Z,100.00
2019-02-20T06:20:00.519Z,100.00
2019-02-20T06:22:29.006Z,100.00
2019-02-20T06:24:57.190Z,100.00
2019-02-20T06:27:25.394Z,100.00
2019-02-20T06:29:53.739Z,100.00
2019-02-20T06:32:24.088Z,100.00
2019-02-20T06:34:54.253Z,100.00
2019-02-20T06:37:23.237Z,100.00
2019-02-20T06:39:52.108Z,100.00
2019-02-20T06:42:20.177Z,100.00
2019-02-20T06:44:48.843Z,100.00
2019-02-20T06:47:18.503Z,100.00
2019-02-20T06:49:46.687Z,100.00
2019-02-20T06:52:16.205Z,100.00
2019-02-20T06:54:53.303Z,100.00
2019-02-20T06:57:15.061Z,100.00
2019-02-20T06:59:43.143Z,100.00
2019-02-20T07:02:11.652Z,100.00
2019-02-20T07:04:59.405Z,100.00
2019-02-20T07:08:30.343Z,100.00
2019-02-20T07:11:29.818Z,100.00
2019-02-20T07:14:33.540Z,100.00
2019-02-20T07:17:37.959Z,100.00
2019-02-20T07:21:22.250Z,100.00
2019-02-20T07:24:52.342Z,100.00
2019-02-20T07:28:10.851Z,100.00
2019-02-20T07:30:38.913Z,100.00
2019-02-20T07:33:07.065Z,100.00
2019-02-20T07:35:35.168Z,100.00
2019-02-20T07:38:03.590Z,100.00
2019-02-20T07:40:31.942Z,100.00
2019-02-20T07:43:00.113Z,100.00
2019-02-20T07:45:28.739Z,99.77
2019-02-20T07:47:57.239Z,99.64
2019-02-20T07:50:27.674Z,99.78
2019-02-20T07:52:55.738Z,99.32
2019-02-20T07:55:23.887Z,99.28
2019-02-20T07:57:52.013Z,99.60
2019-02-20T08:00:20.412Z,99.17
2019-02-20T08:02:48.775Z,99.27
2019-02-20T08:05:17.330Z,99.18
2019-02-20T08:07:45.416Z,98.90
2019-02-20T08:10:13.895Z,98.69
2019-02-20T08:12:42.102Z,98.55
2019-02-20T08:15:17.319Z,98.29
2019-02-20T08:17:45.410Z,99.25
2019-02-20T08:20:13.814Z,98.15
2019-02-20T08:22:42.030Z,98.19
2019-02-20T08:25:10.697Z,97.56
2019-02-20T08:27:39.272Z,97.94
2019-02-20T08:30:12.284Z,97.90
2019-02-20T08:32:40.672Z,98.64
2019-02-20T08:35:09.557Z,97.96
2019-02-20T08:37:38.428Z,97.41
2019-02-20T08:40:10.275Z,97.55
2019-02-20T08:42:40.528Z,97.23
2019-02-20T08:45:11.790Z,96.48
2019-02-20T08:47:40.485Z,96.16
2019-02-20T08:50:10.355Z,96.18
2019-02-20T08:52:38.729Z,96.62
2019-02-20T08:55:07.425Z,95.99
2019-02-20T08:57:35.491Z,95.78
2019-02-20T09:00:07.459Z,95.56
2019-02-20T09:02:35.578Z,96.29
2019-02-20T09:05:04.501Z,95.30
2019-02-20T09:07:32.605Z,95.42
2019-02-20T09:10:00.709Z,95.37
2019-02-20T09:12:29.283Z,95.27
2019-02-20T09:14:57.429Z,94.29
2019-02-20T09:17:25.559Z,93.87
2019-02-20T09:19:54.020Z,93.37
2019-02-20T09:22:22.171Z,94.39
2019-02-20T09:24:50.441Z,93.40
2019-02-20T09:27:19.067Z,92.83
2019-02-20T09:29:47.149Z,92.96
2019-02-20T09:32:15.361Z,92.25
2019-02-20T09:34:43.798Z,92.26
2019-02-20T09:37:11.972Z,92.19
2019-02-20T09:39:40.249Z,91.26
2019-02-20T09:42:11.521Z,90.87
2019-02-20T09:44:48.804Z,90.93
2019-02-20T09:47:18.549Z,90.21
2019-02-20T09:50:05.157Z,90.65
2019-02-20T09:52:33.695Z,90.39
2019-02-20T09:55:02.076Z,90.43
2019-02-20T09:57:30.228Z,89.86
2019-02-20T09:59:58.491Z,90.28
2019-02-20T10:02:26.749Z,90.34
2019-02-20T10:04:56.652Z,89.88
2019-02-20T10:07:24.732Z,90.09
2019-02-20T10:09:53.835Z,89.46
2019-02-20T10:12:22.527Z,89.19
2019-02-20T10:14:50.609Z,88.90
2019-02-20T10:17:20.484Z,88.72
2019-02-20T10:19:48.741Z,88.15
2019-02-20T10:22:17.826Z,88.58
2019-02-20T10:24:45.956Z,88.16
2019-02-20T10:27:14.978Z,89.34
2019-02-20T10:29:43.150Z,88.02
2019-02-20T10:32:11.893Z,89.13
2019-02-20T10:34:40.225Z,89.07
2019-02-20T10:37:27.302Z,87.83
2019-02-20T10:40:09.357Z,87.09
2019-02-20T10:42:56.161Z,86.83
2019-02-20T10:45:24.357Z,86.69
2019-02-20T10:48:11.050Z,86.67
2019-02-20T10:50:40.939Z,88.07
2019-02-20T10:53:27.844Z,87.40
2019-02-20T10:55:56.116Z,87.33
2019-02-20T10:58:25.990Z,85.96
2019-02-20T11:00:56.159Z,85.09
2019-02-20T11:03:39.817Z,86.73
2019-02-20T11:06:08.112Z,85.82
2019-02-20T11:08:54.616Z,85.27
2019-02-20T11:11:38.311Z,85.09
2019-02-20T11:14:07.483Z,85.12
2019-02-20T11:16:37.486Z,85.14
2019-02-20T11:19:08.272Z,84.92
2019-02-20T11:21:54.882Z,85.61
2019-02-20T11:24:41.575Z,84.68
2019-02-20T11:27:28.335Z,83.70
2019-02-20T11:30:14.312Z,83.61
2019-02-20T11:33:01.050Z,84.42
2019-02-20T11:35:38.027Z,83.62
2019-02-20T11:38:24.771Z,83.06
2019-02-20T11:40:53.455Z,83.54
2019-02-20T11:43:21.537Z,83.33
2019-02-20T11:45:49.737Z,82.16
2019-02-20T11:48:18.104Z,81.60
2019-02-20T11:50:46.218Z,81.95
2019-02-20T11:53:16.858Z,80.93
2019-02-20T11:55:45.018Z,80.84
2019-02-20T11:58:13.406Z,80.29
2019-02-20T12:00:41.745Z,79.99
2019-02-20T12:03:09.881Z,80.21
2019-02-20T12:05:37.958Z,79.79
2019-02-20T12:08:06.747Z,78.54
2019-02-20T12:10:36.625Z,79.23
2019-02-20T12:13:05.515Z,80.07
2019-02-20T12:15:33.610Z,80.91
2019-02-20T12:18:01.667Z,81.00
2019-02-20T12:20:30.221Z,80.16
2019-02-20T12:22:58.357Z,79.05
2019-02-20T12:25:26.535Z,79.34
2019-02-20T12:27:54.619Z,79.41
2019-02-20T12:30:22.748Z,78.80
2019-02-20T12:32:51.200Z,79.25
2019-02-20T12:35:19.354Z,78.68
2019-02-20T12:37:47.474Z,78.86
2019-02-20T12:40:15.554Z,79.83
2019-02-20T12:42:43.958Z,79.31
2019-02-20T12:45:12.129Z,78.00
2019-02-20T12:47:40.248Z,77.85
2019-02-20T12:50:08.612Z,77.43
2019-02-20T12:52:36.710Z,76.52
2019-02-20T12:55:05.911Z,76.22
2019-02-20T12:57:35.506Z,75.42
2019-02-20T13:00:04.699Z,75.29
2019-02-20T13:02:33.888Z,75.84
2019-02-20T13:05:02.422Z,75.32
2019-02-20T13:07:30.737Z,74.43
2019-02-20T13:09:59.532Z,73.67
2019-02-20T13:12:27.723Z,73.40
2019-02-20T13:14:55.858Z,73.52
2019-02-20T13:17:24.064Z,72.49
2019-02-20T13:19:52.183Z,72.08
2019-02-20T13:22:20.374Z,71.46
2019-02-20T13:24:48.495Z,71.21
2019-02-20T13:27:22.647Z,70.90
2019-02-20T13:29:47.040Z,71.14
2019-02-20T13:32:16.814Z,70.84
2019-02-20T13:34:44.841Z,69.22
2019-02-20T13:37:13.050Z,68.40
2019-02-20T13:39:41.552Z,69.00
2019-02-20T13:42:09.724Z,68.28
2019-02-20T13:44:38.217Z,68.00
2019-02-20T13:47:06.523Z,68.12
2019-02-20T13:49:34.597Z,67.97
2019-02-20T13:52:03.338Z,68.11
2019-02-20T13:54:31.809Z,68.04
2019-02-20T13:57:02.194Z,66.22
2019-02-20T13:59:31.105Z,66.42
2019-02-20T14:01:59.183Z,67.18
2019-02-20T14:04:27.315Z,66.75
2019-02-20T14:06:55.940Z,66.92
2019-02-20T14:09:24.239Z,66.64
2019-02-20T14:11:52.408Z,66.73
2019-02-20T14:14:20.689Z,66.75
2019-02-20T14:16:48.964Z,67.15
2019-02-20T14:19:17.053Z,66.54
2019-02-20T14:21:46.245Z,67.15
2019-02-20T14:24:14.338Z,67.04
2019-02-20T14:26:42.426Z,66.30
2019-02-20T14:29:10.680Z,65.92
2019-02-20T14:31:38.985Z,66.88
2019-02-20T14:34:07.172Z,65.54
2019-02-20T14:36:35.454Z,66.07
2019-02-20T14:39:05.075Z,65.25
2019-02-20T14:41:33.526Z,64.18
2019-02-20T14:44:02.031Z,63.19
2019-02-20T14:46:30.443Z,64.61
2019-02-20T14:48:58.622Z,65.65
2019-02-20T14:51:27.726Z,64.94
2019-02-20T14:53:55.922Z,64.60
2019-02-20T14:56:23.998Z,64.94
2019-02-20T14:58:52.092Z,63.47
2019-02-20T15:01:20.236Z,63.54
2019-02-20T15:03:48.272Z,63.82
2019-02-20T15:06:16.459Z,63.94
2019-02-20T15:08:44.937Z,63.26
2019-02-20T15:11:13.100Z,63.52
2019-02-20T15:13:41.358Z,63.03
2019-02-20T15:16:09.495Z,63.08
2019-02-20T15:18:37.645Z,62.59
2019-02-20T15:21:05.682Z,62.89
2019-02-20T15:23:34.493Z,63.24
2019-02-20T15:26:02.962Z,62.31
2019-02-20T15:28:31.057Z,63.22
2019-02-20T15:30:59.156Z,62.87
2019-02-20T15:33:27.368Z,64.04
2019-02-20T15:35:55.980Z,62.88
2019-02-20T15:38:24.167Z,62.51
2019-02-20T15:40:52.475Z,62.22
2019-02-20T15:43:21.037Z,62.61
2019-02-20T15:45:49.095Z,63.41
2019-02-20T15:48:23.081Z,62.89
2019-02-20T15:50:47.322Z,63.58
2019-02-20T15:53:15.437Z,63.82
2019-02-20T15:55:44.067Z,64.45
2019-02-20T15:58:12.273Z,64.75
2019-02-20T16:00:41.472Z,63.73
2019-02-20T16:03:09.752Z,63.97
2019-02-20T16:05:37.829Z,64.15
2019-02-20T16:08:07.303Z,65.00
2019-02-20T16:10:36.071Z,64.58
2019-02-20T16:13:06.198Z,65.05
2019-02-20T16:15:34.611Z,65.95
2019-02-20T16:18:04.506Z,65.77
2019-02-20T16:20:33.663Z,66.11
2019-02-20T16:23:01.803Z,65.79
2019-02-20T16:25:29.896Z,65.84
2019-02-20T16:27:58.084Z,66.24
2019-02-20T16:30:26.391Z,66.56
2019-02-20T16:32:54.819Z,66.81
2019-02-20T16:35:22.966Z,67.13
2019-02-20T16:37:51.042Z,67.48
2019-02-20T16:40:19.114Z,67.31
2019-02-20T16:42:47.201Z,67.83
2019-02-20T16:45:23.593Z,67.72
2019-02-20T16:47:52.181Z,68.41
2019-02-20T16:50:20.744Z,68.71
2019-02-20T16:52:48.957Z,68.13
2019-02-20T16:55:22.518Z,68.85
2019-02-20T16:57:55.918Z,68.78
2019-02-20T17:00:19.029Z,68.88
2019-02-20T17:02:47.193Z,68.78
2019-02-20T17:05:16.017Z,68.86
2019-02-20T17:07:45.157Z,69.22
2019-02-20T17:10:14.151Z,69.23
2019-02-20T17:12:42.261Z,68.64
2019-02-20T17:15:15.546Z,69.29
2019-02-20T17:17:43.921Z,69.41
2019-02-20T17:20:13.011Z,69.68
2019-02-20T17:22:41.044Z,69.42
2019-02-20T17:25:10.414Z,69.15
2019-02-20T17:27:38.513Z,68.95
2019-02-20T17:30:09.029Z,69.62
2019-02-20T17:32:37.296Z,69.81
2019-02-20T17:35:06.224Z,70.05
2019-02-20T17:37:34.296Z,69.91
2019-02-20T17:40:03.722Z,70.36
2019-02-20T17:42:31.781Z,69.85
2019-02-20T17:45:01.750Z,70.40
2019-02-20T17:47:29.828Z,70.27
2019-02-20T17:49:57.973Z,70.52
2019-02-20T17:52:26.056Z,70.23
2019-02-20T17:54:54.091Z,70.29
2019-02-20T17:57:22.546Z,70.95
2019-02-20T17:59:50.568Z,70.52
2019-02-20T18:02:18.697Z,70.85
2019-02-20T18:04:46.806Z,71.51
2019-02-20T18:07:16.676Z,71.42
2019-02-20T18:09:45.054Z,71.01
2019-02-20T18:12:13.169Z,70.92
2019-02-20T18:14:44.379Z,71.08
2019-02-20T18:17:12.477Z,71.00
2019-02-20T18:19:40.569Z,71.40
2019-02-20T18:22:08.777Z,70.84
2019-02-20T18:24:36.812Z,71.33
2019-02-20T18:27:04.939Z,71.34
2019-02-20T18:29:33.324Z,71.51
2019-02-20T18:32:01.408Z,71.55
2019-02-20T18:34:29.655Z,71.53
2019-02-20T18:36:57.794Z,71.58
2019-02-20T18:39:25.961Z,71.82
2019-02-20T18:41:54.098Z,72.35
2019-02-20T18:44:22.453Z,72.79
2019-02-20T18:46:50.574Z,72.96
2019-02-20T18:49:20.927Z,72.83
2019-02-20T18:51:48.663Z,72.81
2019-02-20T18:54:16.709Z,72.95
2019-02-20T18:56:45.033Z,72.63
2019-02-20T18:59:13.989Z,73.29
2019-02-20T19:01:42.060Z,73.33
2019-02-20T19:04:10.443Z,72.98
2019-02-20T19:06:38.645Z,73.34
2019-02-20T19:09:24.302Z,73.31
2019-02-20T19:12:58.887Z,73.57
2019-02-20T19:16:07.594Z,74.32
2019-02-20T19:19:14.718Z,74.71
2019-02-20T19:22:56.518Z,74.74
2019-02-20T19:26:35.721Z,74.53
2019-02-20T19:30:10.036Z,74.71
2019-02-20T19:33:10.866Z,74.77
2019-02-20T19:36:41.044Z,75.53
2019-02-20T19:39:35.304Z,75.31
2019-02-20T19:43:12.605Z,75.74
2019-02-20T19:46:08.038Z,75.31
2019-02-20T19:49:14.077Z,75.28
2019-02-20T19:52:15.996Z,75.87
2019-02-20T19:55:25.795Z,76.14
2019-02-20T19:58:41.640Z,76.11
2019-02-20T20:01:52.056Z,75.78
2019-02-20T20:04:53.411Z,76.24
2019-02-20T20:08:11.477Z,76.16
2019-02-20T20:11:20.212Z,76.59
2019-02-20T20:14:54.491Z,76.55
2019-02-20T20:18:21.890Z,77.18
2019-02-20T20:21:59.027Z,77.03
2019-02-20T20:25:07.849Z,77.67
2019-02-20T20:28:52.551Z,77.17
2019-02-20T20:31:55.843Z,76.85
2019-02-20T20:35:17.477Z,77.35
2019-02-20T20:38:19.995Z,77.24
2019-02-20T20:41:50.153Z,76.96
2019-02-20T20:45:18.710Z,77.33
2019-02-20T20:48:48.728Z,77.50
2019-02-20T20:52:15.691Z,77.15
2019-02-20T20:55:30.146Z,77.41
2019-02-20T20:58:42.298Z,77.69
2019-02-20T21:02:11.137Z,77.25
2019-02-20T21:05:37.442Z,77.61
2019-02-20T21:09:01.228Z,77.40
2019-02-20T21:12:10.393Z,77.52
2019-02-20T21:15:35.494Z,77.78
2019-02-20T21:18:52.671Z,77.60
2019-02-20T21:22:33.966Z,77.95
2019-02-20T21:25:54.030Z,77.86
2019-02-20T21:29:16.881Z,78.31
2019-02-20T21:32:52.423Z,77.47
2019-02-20T21:36:14.081Z,77.58
2019-02-20T21:39:51.319Z,77.52
2019-02-20T21:43:02.297Z,77.91
2019-02-20T21:46:13.682Z,78.02
2019-02-20T21:49:28.735Z,77.55
2019-02-20T21:53:05.769Z,78.15
2019-02-20T21:55:59.164Z,78.21
2019-02-20T21:59:21.217Z,78.58
2019-02-20T22:02:23.055Z,78.99
2019-02-20T22:05:44.279Z,77.99
2019-02-20T22:08:50.431Z,78.14
2019-02-20T22:12:04.118Z,78.13
2019-02-20T22:15:26.198Z,78.51
2019-02-20T22:18:38.976Z,78.38
2019-02-20T22:22:23.164Z,78.54
2019-02-20T22:25:35.954Z,78.12
2019-02-20T22:29:16.595Z,78.62
2019-02-20T22:32:51.322Z,78.54
2019-02-20T22:36:14.872Z,78.44
2019-02-20T22:39:21.863Z,79.10
2019-02-20T22:42:49.853Z,78.80
2019-02-20T22:46:05.410Z,78.71
2019-02-20T22:49:46.665Z,78.99
2019-02-20T22:52:30.901Z,79.35
2019-02-20T22:56:08.684Z,79.16
2019-02-20T22:59:30.333Z,78.99
2019-02-20T23:02:42.072Z,79.55
2019-02-20T23:06:10.500Z,79.32
2019-02-20T23:09:26.545Z,79.49
2019-02-20T23:12:52.257Z,78.93
2019-02-20T23:15:20.409Z,79.14
2019-02-20T23:17:48.598Z,79.27
2019-02-20T23:20:16.706Z,78.91
2019-02-20T23:22:45.768Z,79.71
2019-02-20T23:25:13.947Z,79.03
2019-02-20T23:27:42.202Z,78.82
2019-02-20T23:30:13.179Z,78.59
2019-02-20T23:32:43.037Z,78.91
2019-02-20T23:35:10.714Z,78.10
2019-02-20T23:37:38.787Z,77.87
2019-02-20T23:40:07.387Z,78.19
2019-02-20T23:42:35.524Z,78.08
2019-02-20T23:45:04.443Z,77.78
2019-02-20T23:47:33.544Z,77.73
2019-02-20T23:50:01.642Z,77.97
2019-02-20T23:52:29.779Z,78.36
2019-02-20T23:54:57.849Z,78.48
2019-02-20T23:57:26.266Z,78.52
2019-02-20T23:59:54.449Z,78.84
